createdAt,value
2023-05-14T00:01:12.238Z,3.37
2023-05-14T00:03:41.123Z,3.63
2023-05-14T00:06:09.567Z,3.70
2023-05-14T00:08:36.886Z,3.70
2023-05-14T00:11:04.010Z,3.57
2023-05-14T00:13:31.036Z,3.43
2023-05-14T00:15:58.219Z,3.37
2023-05-14T00:18:25.666Z,3.47
2023-05-14T00:20:54.979Z,3.90
2023-05-14T00:23:22.961Z,3.80
2023-05-14T00:25:50.600Z,3.57
2023-05-14T00:28:17.714Z,3.80
2023-05-14T00:30:45.163Z,3.70
2023-05-14T00:33:12.273Z,3.40
2023-05-14T00:35:39.358Z,3.77
2023-05-14T00:38:06.572Z,3.53
2023-05-14T00:40:34.284Z,3.57
2023-05-14T00:43:01.414Z,3.63
2023-05-14T00:45:28.643Z,3.67
2023-05-14T00:47:56.061Z,3.17
2023-05-14T00:50:23.500Z,3.23
2023-05-14T00:52:51.101Z,3.40
2023-05-14T00:55:19.381Z,3.17
2023-05-14T00:57:46.991Z,3.63
2023-05-14T01:00:14.450Z,3.30
2023-05-14T01:02:41.715Z,3.73
2023-05-14T01:05:09.562Z,3.33
2023-05-14T01:07:36.566Z,3.50
2023-05-14T01:10:17.490Z,3.20
2023-05-14T01:12:59.329Z,3.40
2023-05-14T01:15:29.808Z,3.50
2023-05-14T01:18:11.033Z,3.60
2023-05-14T01:20:38.177Z,3.63
2023-05-14T01:23:05.346Z,3.60
2023-05-14T01:25:32.536Z,3.37
2023-05-14T01:28:19.538Z,3.50
2023-05-14T01:30:50.385Z,3.30
2023-05-14T01:33:19.390Z,3.20
2023-05-14T01:35:48.323Z,3.27
2023-05-14T01:38:18.732Z,3.40
2023-05-14T01:40:48.051Z,3.20
2023-05-14T01:43:16.276Z,3.30
2023-05-14T01:45:44.348Z,3.40
2023-05-14T01:48:11.964Z,3.43
2023-05-14T01:50:39.133Z,3.27
2023-05-14T01:53:06.522Z,3.13
2023-05-14T01:55:33.604Z,3.53
2023-05-14T01:58:01.018Z,3.20
2023-05-14T02:00:28.272Z,3.43
2023-05-14T02:02:55.276Z,3.27
2023-05-14T02:05:23.656Z,3.30
2023-05-14T02:07:51.421Z,3.50
2023-05-14T02:10:18.571Z,3.50
2023-05-14T02:12:49.593Z,3.23
2023-05-14T02:15:17.040Z,3.07
2023-05-14T02:17:44.145Z,3.53
2023-05-14T02:20:11.793Z,3.30
2023-05-14T02:22:38.911Z,3.87
2023-05-14T02:25:06.459Z,3.47
2023-05-14T02:27:33.998Z,3.30
2023-05-14T02:30:01.184Z,3.57
2023-05-14T02:32:28.694Z,3.50
2023-05-14T02:34:55.849Z,3.40
2023-05-14T02:37:22.878Z,3.30
2023-05-14T02:39:50.094Z,3.70
2023-05-14T02:42:17.159Z,3.73
2023-05-14T02:44:44.238Z,3.60
2023-05-14T02:47:11.437Z,4.10
2023-05-14T02:49:38.601Z,3.53
2023-05-14T02:52:05.949Z,3.43
2023-05-14T02:54:33.076Z,3.67
2023-05-14T02:57:00.214Z,3.53
2023-05-14T02:59:27.703Z,3.60
2023-05-14T03:01:55.403Z,3.90
2023-05-14T03:04:23.037Z,3.90
2023-05-14T03:06:50.180Z,3.70
2023-05-14T03:09:17.170Z,3.70
2023-05-14T03:11:44.327Z,3.47
2023-05-14T03:14:11.428Z,3.73
2023-05-14T03:16:40.139Z,3.90
2023-05-14T03:19:07.371Z,3.93
2023-05-14T03:21:34.596Z,3.53
2023-05-14T03:24:01.634Z,3.80
2023-05-14T03:26:28.761Z,3.40
2023-05-14T03:28:56.031Z,3.53
2023-05-14T03:31:23.218Z,3.57
2023-05-14T03:33:50.310Z,3.67
2023-05-14T03:36:17.340Z,3.53
2023-05-14T03:38:44.383Z,3.50
2023-05-14T03:41:11.467Z,3.40
2023-05-14T03:43:38.598Z,3.67
2023-05-14T03:46:05.723Z,3.63
2023-05-14T03:48:32.858Z,3.20
2023-05-14T03:50:59.921Z,3.60
2023-05-14T03:53:28.427Z,3.63
2023-05-14T03:55:55.460Z,3.33
2023-05-14T03:58:22.572Z,3.20
2023-05-14T04:00:49.736Z,3.43
2023-05-14T04:03:17.138Z,3.17
2023-05-14T04:05:44.349Z,3.50
2023-05-14T04:08:11.397Z,3.27
2023-05-14T04:10:38.656Z,3.40
2023-05-14T04:13:06.060Z,3.50
2023-05-14T04:15:35.996Z,3.60
2023-05-14T04:18:03.153Z,3.50
2023-05-14T04:20:30.265Z,3.37
2023-05-14T04:22:57.354Z,3.47
2023-05-14T04:25:24.403Z,3.30
2023-05-14T04:27:51.681Z,3.23
2023-05-14T04:30:18.899Z,3.60
2023-05-14T04:32:45.940Z,3.70
2023-05-14T04:35:13.156Z,3.30
2023-05-14T04:37:40.638Z,3.20
2023-05-14T04:40:09.154Z,3.00
2023-05-14T04:42:36.347Z,3.30
2023-05-14T04:45:05.361Z,3.13
2023-05-14T04:47:32.789Z,3.33
2023-05-14T04:49:59.850Z,3.33
2023-05-14T04:52:26.980Z,3.30
2023-05-14T04:54:54.180Z,3.20
2023-05-14T04:57:21.837Z,3.63
2023-05-14T04:59:49.169Z,3.70
2023-05-14T05:02:16.399Z,3.70
2023-05-14T05:04:43.699Z,3.30
2023-05-14T05:07:11.053Z,3.80
2023-05-14T05:09:38.418Z,3.50
2023-05-14T05:12:06.035Z,3.47
2023-05-14T05:14:33.116Z,3.60
2023-05-14T05:17:00.156Z,3.47
2023-05-14T05:19:39.588Z,3.47
2023-05-14T05:22:10.497Z,3.70
2023-05-14T05:24:37.746Z,3.90
2023-05-14T05:27:05.616Z,3.40
2023-05-14T05:29:32.991Z,3.47
2023-05-14T05:32:00.229Z,3.53
2023-05-14T05:34:27.693Z,3.63
2023-05-14T05:36:54.689Z,3.57
2023-05-14T05:39:22.022Z,3.70
2023-05-14T05:41:49.162Z,3.60
2023-05-14T05:44:16.182Z,3.90
2023-05-14T05:46:43.291Z,3.40
2023-05-14T05:49:10.372Z,3.73
2023-05-14T05:51:37.399Z,4.00
2023-05-14T05:54:04.504Z,4.07
2023-05-14T05:56:31.877Z,4.07
2023-05-14T05:58:59.041Z,4.37
2023-05-14T06:01:26.774Z,4.70
2023-05-14T06:03:53.806Z,4.33
2023-05-14T06:06:21.796Z,4.53
2023-05-14T06:08:49.109Z,4.00
2023-05-14T06:11:17.114Z,4.73
2023-05-14T06:13:44.193Z,4.57
2023-05-14T06:16:11.391Z,4.30
2023-05-14T06:18:38.459Z,5.20
2023-05-14T06:21:05.630Z,4.97
2023-05-14T06:23:33.204Z,5.10
2023-05-14T06:26:00.338Z,4.73
2023-05-14T06:28:27.446Z,4.43
2023-05-14T06:30:54.517Z,4.93
2023-05-14T06:33:29.668Z,4.90
2023-05-14T06:36:07.893Z,4.97
2023-05-14T06:38:35.079Z,4.60
2023-05-14T06:41:02.238Z,5.07
2023-05-14T06:43:29.545Z,4.57
2023-05-14T06:45:56.652Z,4.40
2023-05-14T06:48:23.994Z,4.33
2023-05-14T06:50:51.272Z,4.40
2023-05-14T06:53:18.353Z,4.80
2023-05-14T06:55:48.239Z,4.40
2023-05-14T06:58:15.626Z,4.50
2023-05-14T07:00:42.954Z,4.83
2023-05-14T07:03:10.145Z,4.50
2023-05-14T07:05:37.266Z,4.87
2023-05-14T07:08:04.500Z,4.80
2023-05-14T07:10:31.814Z,4.80
2023-05-14T07:12:58.844Z,4.67
2023-05-14T07:15:25.981Z,4.87
2023-05-14T07:17:53.037Z,4.43
2023-05-14T07:20:20.233Z,4.60
2023-05-14T07:22:47.259Z,5.27
2023-05-14T07:25:14.365Z,4.87
2023-05-14T07:27:41.493Z,4.57
2023-05-14T07:30:08.995Z,5.10
2023-05-14T07:32:36.080Z,4.87
2023-05-14T07:35:03.929Z,4.90
2023-05-14T07:37:31.003Z,4.97
2023-05-14T07:39:58.129Z,4.93
2023-05-14T07:42:35.315Z,5.20
2023-05-14T07:45:04.941Z,5.03
2023-05-14T07:47:32.257Z,5.13
2023-05-14T07:49:59.618Z,5.37
2023-05-14T07:52:26.706Z,5.60
2023-05-14T07:54:53.927Z,4.90
2023-05-14T07:57:22.072Z,4.77
2023-05-14T07:59:49.320Z,5.57
2023-05-14T08:02:16.988Z,5.27
2023-05-14T08:04:44.967Z,5.00
2023-05-14T08:07:12.119Z,5.10
2023-05-14T08:09:39.148Z,5.13
2023-05-14T08:12:06.807Z,5.67
2023-05-14T08:14:33.832Z,5.53
2023-05-14T08:17:01.011Z,5.83
2023-05-14T08:19:28.494Z,5.40
2023-05-14T08:21:55.690Z,5.37
2023-05-14T08:24:22.789Z,5.60
2023-05-14T08:26:49.847Z,5.80
2023-05-14T08:29:17.033Z,5.60
2023-05-14T08:31:44.437Z,6.17
2023-05-14T08:34:11.482Z,5.87
2023-05-14T08:36:39.355Z,5.60
2023-05-14T08:39:07.877Z,5.27
2023-05-14T08:41:35.550Z,5.70
2023-05-14T08:44:14.085Z,5.30
2023-05-14T08:46:41.944Z,5.10
2023-05-14T08:49:45.737Z,5.17
2023-05-14T08:52:13.133Z,5.27
2023-05-14T08:54:40.793Z,5.67
2023-05-14T08:57:10.744Z,5.50
2023-05-14T08:59:38.222Z,5.57
2023-05-14T09:02:07.031Z,5.63
2023-05-14T09:04:36.139Z,5.70
2023-05-14T09:07:04.177Z,5.93
2023-05-14T09:09:31.739Z,5.80
2023-05-14T09:11:58.942Z,5.90
2023-05-14T09:14:26.388Z,6.07
2023-05-14T09:16:54.815Z,5.80
2023-05-14T09:19:22.304Z,6.43
2023-05-14T09:21:50.392Z,6.03
2023-05-14T09:24:22.124Z,6.30
2023-05-14T09:26:57.536Z,5.90
2023-05-14T09:29:26.227Z,5.60
2023-05-14T09:31:54.321Z,5.70
2023-05-14T09:34:28.711Z,5.43
2023-05-14T09:36:59.441Z,5.77
2023-05-14T09:39:27.242Z,5.87
2023-05-14T09:41:54.879Z,5.87
2023-05-14T09:44:22.946Z,5.10
2023-05-14T09:46:50.985Z,5.20
2023-05-14T09:49:18.596Z,5.23
2023-05-14T09:51:45.776Z,4.80
2023-05-14T09:54:12.896Z,4.90
2023-05-14T09:56:40.086Z,4.93
2023-05-14T09:59:07.146Z,4.50
2023-05-14T10:01:34.900Z,4.70
2023-05-14T10:04:06.520Z,4.07
2023-05-14T10:06:38.105Z,4.50
2023-05-14T10:09:10.037Z,4.67
2023-05-14T10:11:38.664Z,4.23
2023-05-14T10:14:29.841Z,4.30
2023-05-14T10:16:59.732Z,4.00
2023-05-14T10:19:28.143Z,4.30
2023-05-14T10:22:05.238Z,3.73
2023-05-14T10:24:33.010Z,3.90
2023-05-14T10:27:00.501Z,3.73
2023-05-14T10:29:38.219Z,4.10
2023-05-14T10:32:07.384Z,3.93
2023-05-14T10:34:38.726Z,3.60
2023-05-14T10:37:08.737Z,3.70
2023-05-14T10:40:00.063Z,4.10
2023-05-14T10:42:29.020Z,3.67
2023-05-14T10:45:07.552Z,3.77
2023-05-14T10:47:39.739Z,3.43
2023-05-14T10:50:09.232Z,3.60
2023-05-14T10:52:37.267Z,3.77
2023-05-14T10:55:10.339Z,3.63
2023-05-14T10:57:39.383Z,3.57
2023-05-14T11:00:08.835Z,3.77
2023-05-14T11:02:38.227Z,3.40
2023-05-14T11:05:11.674Z,3.87
2023-05-14T11:07:44.288Z,3.37
2023-05-14T11:10:16.496Z,3.87
2023-05-14T11:12:48.867Z,3.77
2023-05-14T11:15:21.777Z,3.97
2023-05-14T11:17:50.469Z,4.10
2023-05-14T11:20:18.765Z,4.07
2023-05-14T11:22:47.337Z,4.20
2023-05-14T11:25:15.340Z,4.03
2023-05-14T11:27:44.563Z,4.18
2023-05-14T11:30:16.859Z,3.90
2023-05-14T11:32:48.609Z,3.83
2023-05-14T11:35:16.843Z,4.37
2023-05-14T11:37:49.502Z,4.07
2023-05-14T11:40:17.037Z,3.93
2023-05-14T11:42:44.467Z,3.90
2023-05-14T11:45:13.029Z,4.38
2023-05-14T11:47:42.854Z,3.87
2023-05-14T11:50:11.211Z,3.93
2023-05-14T11:52:41.224Z,4.17
2023-05-14T11:55:12.898Z,4.10
2023-05-14T11:57:41.157Z,4.13
2023-05-14T12:00:21.310Z,3.77
2023-05-14T12:02:52.108Z,3.88
2023-05-14T12:05:19.423Z,3.50
2023-05-14T12:07:47.652Z,3.83
2023-05-14T12:10:15.231Z,3.80
2023-05-14T12:12:47.193Z,3.53
2023-05-14T12:15:19.195Z,3.58
2023-05-14T12:17:52.314Z,3.60
2023-05-14T12:20:19.716Z,3.70
2023-05-14T12:22:46.839Z,3.67
2023-05-14T12:25:14.357Z,3.63
2023-05-14T12:27:44.856Z,3.47
2023-05-14T12:30:21.382Z,3.20
2023-05-14T12:32:52.728Z,3.30
2023-05-14T12:35:21.591Z,3.30
2023-05-14T12:37:48.707Z,3.28
2023-05-14T12:40:15.758Z,3.38
2023-05-14T12:42:42.817Z,3.08
2023-05-14T12:45:10.340Z,3.30
2023-05-14T12:47:37.584Z,3.22
2023-05-14T12:50:06.138Z,3.40
2023-05-14T12:52:38.487Z,3.30
2023-05-14T12:55:09.862Z,3.42
2023-05-14T12:57:39.078Z,3.47
2023-05-14T13:00:08.481Z,3.60
2023-05-14T13:02:42.569Z,3.38
2023-05-14T13:05:11.677Z,3.38
2023-05-14T13:07:39.266Z,3.15
2023-05-14T13:10:07.064Z,3.42
2023-05-14T13:12:34.535Z,3.70
2023-05-14T13:15:01.685Z,3.47
2023-05-14T13:17:28.886Z,3.40
2023-05-14T13:19:56.199Z,3.53
2023-05-14T13:22:23.212Z,3.80
2023-05-14T13:24:50.327Z,3.70
2023-05-14T13:27:17.362Z,4.18
2023-05-14T13:29:44.392Z,4.10
2023-05-14T13:32:11.698Z,3.92
2023-05-14T13:34:38.735Z,3.88
2023-05-14T13:37:05.837Z,3.80
2023-05-14T13:39:32.967Z,3.58
2023-05-14T13:42:00.075Z,3.75
2023-05-14T13:44:27.747Z,3.55
2023-05-14T13:46:55.004Z,3.75
2023-05-14T13:49:22.053Z,3.80
2023-05-14T13:51:49.141Z,3.40
2023-05-14T13:54:16.230Z,3.75
2023-05-14T13:56:43.266Z,3.63
2023-05-14T13:59:11.218Z,3.60
2023-05-14T14:01:38.377Z,3.78
2023-05-14T14:04:05.642Z,3.88
2023-05-14T14:06:33.386Z,3.65
2023-05-14T14:09:00.672Z,3.42
2023-05-14T14:11:28.095Z,3.58
2023-05-14T14:13:55.168Z,3.58
2023-05-14T14:16:22.220Z,3.58
2023-05-14T14:18:49.410Z,3.90
2023-05-14T14:21:18.393Z,3.40
2023-05-14T14:23:49.103Z,3.60
2023-05-14T14:26:16.231Z,3.83
2023-05-14T14:28:43.678Z,3.80
2023-05-14T14:31:11.243Z,3.63
2023-05-14T14:33:38.452Z,3.85
2023-05-14T14:36:06.131Z,4.03
2023-05-14T14:38:33.224Z,3.90
2023-05-14T14:41:02.989Z,3.33
2023-05-14T14:43:30.087Z,3.30
2023-05-14T14:45:57.180Z,4.13
2023-05-14T14:48:38.257Z,3.50
2023-05-14T14:51:07.132Z,3.33
2023-05-14T14:53:34.992Z,3.35
2023-05-14T14:56:02.285Z,3.15
2023-05-14T14:58:29.356Z,3.40
2023-05-14T15:00:57.559Z,3.40
2023-05-14T15:03:25.804Z,3.47
2023-05-14T15:05:53.761Z,3.22
2023-05-14T15:08:24.624Z,3.50
2023-05-14T15:10:52.161Z,3.75
2023-05-14T15:13:19.696Z,3.47
2023-05-14T15:15:50.742Z,3.70
2023-05-14T15:18:18.087Z,3.60
2023-05-14T15:20:45.329Z,3.63
2023-05-14T15:23:12.689Z,3.70
2023-05-14T15:25:39.994Z,3.47
2023-05-14T15:28:07.781Z,3.75
2023-05-14T15:30:35.237Z,3.42
2023-05-14T15:33:02.313Z,4.00
2023-05-14T15:35:29.443Z,3.42
2023-05-14T15:37:59.750Z,3.47
2023-05-14T15:40:28.105Z,3.60
2023-05-14T15:42:55.413Z,3.60
2023-05-14T15:45:22.572Z,3.50
2023-05-14T15:47:49.725Z,3.40
2023-05-14T15:50:16.810Z,3.35
2023-05-14T15:52:43.837Z,3.28
2023-05-14T15:55:10.962Z,3.50
2023-05-14T15:57:38.110Z,3.33
2023-05-14T16:00:11.470Z,3.47
2023-05-14T16:02:39.863Z,3.35
2023-05-14T16:05:08.588Z,3.80
2023-05-14T16:07:36.521Z,3.70
2023-05-14T16:10:04.069Z,4.00
2023-05-14T16:12:31.262Z,3.60
2023-05-14T16:14:58.496Z,3.70
2023-05-14T16:17:27.667Z,3.75
2023-05-14T16:19:56.241Z,3.95
2023-05-14T16:22:23.741Z,3.80
2023-05-14T16:24:51.022Z,3.85
2023-05-14T16:27:19.258Z,4.13
2023-05-14T16:29:46.341Z,3.78
2023-05-14T16:32:13.556Z,3.95
2023-05-14T16:34:40.763Z,3.55
2023-05-14T16:37:08.215Z,3.60
2023-05-14T16:39:35.322Z,3.60
2023-05-14T16:42:02.401Z,3.40
2023-05-14T16:44:29.405Z,3.17
2023-05-14T16:46:56.724Z,3.33
2023-05-14T16:49:23.866Z,4.20
2023-05-14T16:51:50.956Z,3.20
2023-05-14T16:54:17.975Z,3.10
2023-05-14T16:56:48.183Z,3.07
2023-05-14T16:59:16.120Z,3.40
2023-05-14T17:01:44.474Z,3.40
2023-05-14T17:04:12.828Z,3.03
2023-05-14T17:06:39.891Z,3.00
2023-05-14T17:09:07.082Z,3.10
2023-05-14T17:11:34.155Z,3.22
2023-05-14T17:14:01.292Z,3.03
2023-05-14T17:16:28.691Z,3.35
2023-05-14T17:18:55.919Z,3.10
2023-05-14T17:21:23.061Z,2.80
2023-05-14T17:23:50.296Z,3.40
2023-05-14T17:26:17.388Z,2.95
2023-05-14T17:28:44.587Z,2.97
2023-05-14T17:31:11.952Z,2.80
2023-05-14T17:33:39.247Z,2.78
2023-05-14T17:36:06.632Z,3.00
2023-05-14T17:38:34.948Z,3.00
2023-05-14T17:41:02.975Z,3.15
2023-05-14T17:43:30.776Z,3.22
2023-05-14T17:45:58.540Z,3.50
2023-05-14T17:48:25.942Z,3.85
2023-05-14T17:50:53.089Z,3.97
2023-05-14T17:53:20.323Z,3.75
2023-05-14T17:55:47.605Z,3.67
2023-05-14T17:58:16.097Z,3.17
2023-05-14T18:00:44.072Z,3.10
2023-05-14T18:03:11.572Z,2.87
2023-05-14T18:05:39.069Z,2.50
2023-05-14T18:08:06.171Z,2.43
2023-05-14T18:10:33.427Z,2.35
2023-05-14T18:13:00.516Z,2.20
2023-05-14T18:15:27.734Z,2.40
2023-05-14T18:17:55.060Z,2.60
2023-05-14T18:20:22.187Z,2.55
2023-05-14T18:22:52.443Z,2.50
2023-05-14T18:25:19.729Z,2.50
2023-05-14T18:27:47.103Z,2.60
2023-05-14T18:30:15.590Z,2.55
2023-05-14T18:32:44.767Z,2.83
2023-05-14T18:35:13.373Z,2.70
2023-05-14T18:37:41.121Z,2.40
2023-05-14T18:40:09.220Z,2.72
2023-05-14T18:42:36.292Z,2.70
2023-05-14T18:45:04.298Z,2.80
2023-05-14T18:47:32.087Z,2.78
2023-05-14T18:50:01.997Z,2.30
2023-05-14T18:52:29.838Z,2.97
2023-05-14T18:54:56.969Z,2.63
2023-05-14T18:57:24.190Z,2.53
2023-05-14T18:59:51.223Z,2.33
2023-05-14T19:02:18.401Z,2.67
2023-05-14T19:04:52.352Z,2.30
2023-05-14T19:07:21.532Z,2.50
2023-05-14T19:10:09.572Z,2.30
2023-05-14T19:12:36.792Z,2.40
2023-05-14T19:15:04.542Z,2.57
2023-05-14T19:17:32.907Z,2.60
2023-05-14T19:20:00.198Z,2.27
2023-05-14T19:22:27.281Z,2.50
2023-05-14T19:24:54.369Z,2.53
2023-05-14T19:27:21.752Z,2.40
2023-05-14T19:29:48.807Z,2.40
2023-05-14T19:32:16.446Z,2.47
2023-05-14T19:34:43.594Z,2.40
2023-05-14T19:37:10.703Z,2.50
2023-05-14T19:39:37.804Z,2.33
2023-05-14T19:42:05.178Z,2.43
2023-05-14T19:44:32.287Z,2.30
2023-05-14T19:46:59.371Z,2.20
2023-05-14T19:49:26.490Z,2.27
2023-05-14T19:51:53.517Z,2.20
2023-05-14T19:54:20.596Z,2.30
2023-05-14T19:56:47.938Z,2.30
2023-05-14T19:59:15.063Z,2.13
2023-05-14T20:01:42.151Z,2.33
2023-05-14T20:04:09.355Z,2.30
2023-05-14T20:06:37.004Z,2.30
2023-05-14T20:09:05.928Z,2.17
2023-05-14T20:11:33.023Z,2.40
2023-05-14T20:14:00.044Z,2.27
2023-05-14T20:16:28.657Z,2.53
2023-05-14T20:18:55.985Z,2.33
2023-05-14T20:21:23.193Z,2.40
2023-05-14T20:23:50.296Z,2.30
2023-05-14T20:26:17.357Z,2.40
2023-05-14T20:28:44.433Z,2.20
2023-05-14T20:31:11.598Z,2.20
2023-05-14T20:33:38.710Z,2.23
2023-05-14T20:36:05.899Z,2.30
2023-05-14T20:38:34.895Z,2.13
2023-05-14T20:41:02.000Z,2.50
2023-05-14T20:43:29.125Z,2.37
2023-05-14T20:45:58.018Z,2.20
2023-05-14T20:48:25.128Z,2.50
2023-05-14T20:50:52.215Z,2.67
2023-05-14T20:53:19.686Z,2.30
2023-05-14T20:55:46.811Z,2.50
2023-05-14T20:58:13.808Z,2.60
2023-05-14T21:00:41.021Z,2.30
2023-05-14T21:03:08.310Z,2.20
2023-05-14T21:05:35.505Z,2.37
2023-05-14T21:08:02.533Z,2.73
2023-05-14T21:10:29.622Z,2.33
2023-05-14T21:12:56.726Z,2.43
2023-05-14T21:15:23.988Z,2.20
2023-05-14T21:17:51.234Z,2.40
2023-05-14T21:20:18.452Z,2.50
2023-05-14T21:22:45.892Z,2.40
2023-05-14T21:25:12.981Z,2.30
2023-05-14T21:27:39.993Z,2.30
2023-05-14T21:30:07.655Z,2.20
2023-05-14T21:32:34.756Z,2.30
2023-05-14T21:35:01.780Z,2.40
2023-05-14T21:37:28.890Z,2.30
2023-05-14T21:39:55.936Z,2.40
2023-05-14T21:42:23.020Z,2.17
2023-05-14T21:44:50.119Z,2.50
2023-05-14T21:47:17.338Z,2.20
2023-05-14T21:49:44.577Z,2.37
2023-05-14T21:52:11.766Z,2.33
2023-05-14T21:54:38.794Z,2.30
2023-05-14T21:57:06.517Z,2.20
2023-05-14T21:59:34.048Z,2.13
2023-05-14T22:04:31.148Z,2.03
2023-05-14T22:06:58.259Z,2.30
2023-05-14T22:09:25.936Z,2.20
2023-05-14T22:11:53.074Z,2.43
2023-05-14T22:14:20.077Z,2.70
2023-05-14T22:16:47.505Z,2.40
2023-05-14T22:19:16.530Z,2.60
2023-05-14T22:21:43.829Z,2.30
2023-05-14T22:24:10.844Z,2.60
2023-05-14T22:26:37.926Z,2.33
2023-05-14T22:29:05.078Z,2.67
2023-05-14T22:31:32.150Z,2.70
2023-05-14T22:33:59.256Z,2.53
2023-05-14T22:36:26.375Z,3.00
2023-05-14T22:38:53.367Z,2.50
2023-05-14T22:41:22.018Z,2.90
2023-05-14T22:43:49.487Z,2.77
2023-05-14T22:46:16.644Z,2.33
2023-05-14T22:48:44.969Z,2.40
2023-05-14T22:51:11.958Z,2.50
2023-05-14T22:53:39.122Z,2.70
2023-05-14T22:56:06.441Z,2.50
2023-05-14T22:58:33.532Z,2.80
2023-05-14T23:01:00.907Z,2.20
2023-05-14T23:03:28.058Z,2.40
2023-05-14T23:05:55.142Z,2.60
2023-05-14T23:08:22.181Z,2.10
2023-05-14T23:10:49.284Z,2.30
2023-05-14T23:13:16.455Z,2.50
2023-05-14T23:15:44.102Z,2.40
2023-05-14T23:18:11.376Z,2.53
2023-05-14T23:20:38.457Z,2.33
2023-05-14T23:23:06.462Z,2.30
2023-05-14T23:25:33.564Z,2.20
2023-05-14T23:28:00.721Z,2.40
2023-05-14T23:30:27.720Z,2.37
2023-05-14T23:32:54.811Z,2.33
2023-05-14T23:35:22.032Z,2.47
2023-05-14T23:37:50.979Z,2.57
2023-05-14T23:40:18.389Z,2.40
2023-05-14T23:42:45.573Z,2.73
2023-05-14T23:45:13.682Z,2.70
2023-05-14T23:47:41.634Z,2.30
2023-05-14T23:50:08.937Z,2.50
2023-05-14T23:52:35.984Z,2.40
2023-05-14T23:55:03.167Z,2.27
2023-05-14T23:57:30.615Z,2.50
2023-05-14T23:59:57.710Z,2.20
